createdAt,value
2017-11-17T00:01:16.548Z,5.53
2017-11-17T00:03:44.453Z,4.87
2017-11-17T00:06:12.322Z,4.40
2017-11-17T00:08:40.193Z,4.07
2017-11-17T00:11:08.138Z,4.47
2017-11-17T00:13:35.993Z,3.80
2017-11-17T00:16:03.888Z,4.03
2017-11-17T00:18:31.753Z,3.87
2017-11-17T00:20:59.659Z,4.10
2017-11-17T00:23:27.525Z,4.43
2017-11-17T00:25:55.389Z,3.73
2017-11-17T00:28:23.256Z,3.50
2017-11-17T00:30:51.126Z,3.13
2017-11-17T00:33:18.990Z,3.17
2017-11-17T00:35:53.412Z,3.60
2017-11-17T00:38:21.279Z,3.07
2017-11-17T00:40:49.146Z,3.00
2017-11-17T00:43:17.014Z,3.87
2017-11-17T00:45:44.895Z,3.47
2017-11-17T00:48:12.785Z,3.40
2017-11-17T00:50:40.829Z,3.10
2017-11-17T00:53:08.689Z,4.20
2017-11-17T00:55:36.541Z,4.40
2017-11-17T00:58:04.405Z,3.37
2017-11-17T01:00:32.253Z,4.20
2017-11-17T01:03:00.135Z,5.40
2017-11-17T01:05:28.005Z,4.60
2017-11-17T01:07:55.870Z,4.20
2017-11-17T01:10:23.726Z,4.33
2017-11-17T01:12:51.605Z,4.90
2017-11-17T01:15:19.478Z,4.80
2017-11-17T01:17:47.327Z,5.80
2017-11-17T01:20:15.305Z,5.27
2017-11-17T01:22:43.383Z,4.90
2017-11-17T01:25:11.279Z,5.73
2017-11-17T01:27:39.154Z,5.23
2017-11-17T01:30:06.990Z,5.67
2017-11-17T01:32:34.851Z,5.97
2017-11-17T01:35:02.711Z,5.70
2017-11-17T01:37:30.599Z,6.10
2017-11-17T01:39:58.458Z,7.60
2017-11-17T01:42:26.328Z,4.90
2017-11-17T01:44:54.201Z,4.87
2017-11-17T01:47:22.106Z,5.13
2017-11-17T01:49:49.970Z,6.10
2017-11-17T01:52:17.816Z,5.83
2017-11-17T01:54:45.702Z,4.97
2017-11-17T01:57:13.570Z,5.00
2017-11-17T01:59:42.129Z,5.00
2017-11-17T02:02:16.134Z,4.50
2017-11-17T02:04:44.017Z,5.80
2017-11-17T02:07:11.856Z,4.20
2017-11-17T02:09:39.714Z,5.87
2017-11-17T02:12:07.550Z,5.87
2017-11-17T02:14:35.407Z,4.47
2017-11-17T02:17:03.279Z,5.50
2017-11-17T02:19:31.124Z,4.87
2017-11-17T02:21:58.985Z,3.83
2017-11-17T02:24:26.826Z,4.53
2017-11-17T02:26:54.689Z,4.33
2017-11-17T02:29:22.526Z,5.00
2017-11-17T02:31:50.378Z,4.47
2017-11-17T02:34:18.229Z,5.10
2017-11-17T02:36:46.102Z,4.93
2017-11-17T02:39:13.962Z,3.77
2017-11-17T02:41:41.830Z,4.20
2017-11-17T02:44:09.699Z,4.93
2017-11-17T02:46:37.579Z,4.33
2017-11-17T02:49:05.427Z,5.40
2017-11-17T02:51:33.289Z,4.97
2017-11-17T02:54:01.157Z,4.50
2017-11-17T02:56:29.030Z,4.53
2017-11-17T02:58:56.878Z,4.50
2017-11-17T03:01:24.764Z,4.07
2017-11-17T03:03:52.653Z,5.53
2017-11-17T03:06:20.520Z,3.90
2017-11-17T03:08:48.369Z,3.80
2017-11-17T03:11:16.281Z,7.03
2017-11-17T03:13:44.189Z,5.17
2017-11-17T03:16:12.014Z,3.80
2017-11-17T03:18:39.858Z,5.40
2017-11-17T03:21:07.699Z,4.67
2017-11-17T03:23:35.526Z,3.97
2017-11-17T03:26:03.390Z,3.80
2017-11-17T03:28:31.217Z,3.80
2017-11-17T03:30:59.070Z,6.30
2017-11-17T03:33:26.934Z,4.30
2017-11-17T03:36:00.826Z,5.30
2017-11-17T03:38:28.683Z,4.83
2017-11-17T03:40:56.585Z,4.47
2017-11-17T03:43:24.515Z,4.80
2017-11-17T03:45:52.384Z,6.13
2017-11-17T03:48:20.301Z,5.27
2017-11-17T03:50:48.171Z,5.23
2017-11-17T03:53:16.043Z,5.60
2017-11-17T03:55:43.918Z,4.90
2017-11-17T03:58:11.799Z,4.60
2017-11-17T04:00:39.683Z,4.70
2017-11-17T04:03:08.109Z,5.33
2017-11-17T04:05:36.753Z,5.30
2017-11-17T04:08:04.665Z,6.40
2017-11-17T04:10:32.590Z,6.00
2017-11-17T04:13:00.525Z,6.40
2017-11-17T04:15:28.390Z,5.97
2017-11-17T04:17:56.294Z,5.50
2017-11-17T04:20:24.177Z,7.87
2017-11-17T04:22:52.066Z,6.17
2017-11-17T04:25:19.993Z,6.50
2017-11-17T04:27:47.901Z,6.57
2017-11-17T04:30:15.774Z,7.00
2017-11-17T04:32:43.673Z,6.50
2017-11-17T04:35:11.619Z,6.00
2017-11-17T04:37:39.473Z,5.20
2017-11-17T04:40:07.355Z,6.20
2017-11-17T04:42:35.214Z,5.03
2017-11-17T04:45:03.077Z,7.00
2017-11-17T04:47:30.940Z,5.97
2017-11-17T04:49:58.796Z,7.00
2017-11-17T04:52:26.664Z,9.17
2017-11-17T04:54:54.520Z,7.23
2017-11-17T04:57:22.369Z,9.37
2017-11-17T04:59:50.223Z,6.97
2017-11-17T05:02:18.046Z,7.17
2017-11-17T05:04:45.930Z,7.17
2017-11-17T05:07:13.789Z,6.30
2017-11-17T05:09:41.726Z,6.57
2017-11-17T05:12:09.554Z,8.07
2017-11-17T05:14:37.555Z,8.80
2017-11-17T05:17:05.418Z,5.70
2017-11-17T05:19:33.310Z,7.40
2017-11-17T05:22:01.179Z,6.07
2017-11-17T05:24:29.025Z,6.10
2017-11-17T05:26:56.857Z,7.17
2017-11-17T05:29:24.774Z,7.77
2017-11-17T05:31:52.570Z,7.27
2017-11-17T05:34:20.425Z,6.78
2017-11-17T05:36:48.276Z,6.37
2017-11-17T05:39:16.129Z,7.50
2017-11-17T05:41:44.009Z,6.43
2017-11-17T05:44:11.875Z,5.60
2017-11-17T05:46:39.763Z,9.60
2017-11-17T05:49:07.642Z,6.83
2017-11-17T05:51:35.498Z,7.00
2017-11-17T05:54:03.408Z,7.13
2017-11-17T05:56:31.286Z,6.00
2017-11-17T05:58:59.158Z,6.07
2017-11-17T06:01:27.003Z,6.23
2017-11-17T06:03:54.908Z,5.60
2017-11-17T06:06:22.769Z,5.20
2017-11-17T06:08:50.620Z,6.82
2017-11-17T06:11:18.521Z,5.55
2017-11-17T06:13:46.414Z,5.60
2017-11-17T06:16:14.278Z,5.15
2017-11-17T06:18:42.122Z,6.57
2017-11-17T06:21:09.992Z,6.00
2017-11-17T06:23:37.846Z,5.57
2017-11-17T06:26:05.710Z,5.20
2017-11-17T06:28:33.542Z,6.70
2017-11-17T06:31:01.416Z,6.15
2017-11-17T06:33:29.251Z,6.20
2017-11-17T06:35:57.093Z,7.10
2017-11-17T06:38:24.990Z,8.37
2017-11-17T06:40:52.910Z,5.40
2017-11-17T06:43:20.777Z,5.55
2017-11-17T06:45:48.637Z,6.50
2017-11-17T06:48:16.508Z,5.90
2017-11-17T06:50:44.378Z,4.68
2017-11-17T06:53:12.335Z,6.43
2017-11-17T06:55:40.214Z,6.00
2017-11-17T06:58:08.050Z,5.60
2017-11-17T07:00:36.018Z,4.80
2017-11-17T07:03:03.870Z,5.20
2017-11-17T07:05:31.739Z,6.10
2017-11-17T07:07:59.605Z,6.13
2017-11-17T07:10:27.537Z,6.27
2017-11-17T07:12:55.611Z,5.40
2017-11-17T07:15:23.473Z,6.72
2017-11-17T07:17:51.750Z,6.22
2017-11-17T07:20:19.593Z,5.80
2017-11-17T07:22:47.443Z,7.73
2017-11-17T07:25:15.300Z,6.00
2017-11-17T07:27:43.154Z,5.62
2017-11-17T07:30:11.010Z,6.93
2017-11-17T07:32:38.890Z,6.77
2017-11-17T07:35:06.711Z,6.55
2017-11-17T07:37:34.574Z,7.60
2017-11-17T07:40:02.486Z,6.23
2017-11-17T07:42:32.449Z,6.25
2017-11-17T07:45:00.352Z,6.93
2017-11-17T07:47:28.237Z,8.73
2017-11-17T07:49:56.072Z,7.05
2017-11-17T07:52:23.918Z,5.57
2017-11-17T07:54:51.749Z,6.65
2017-11-17T07:57:19.603Z,6.20
2017-11-17T07:59:47.441Z,4.93
2017-11-17T08:02:15.301Z,5.03
2017-11-17T08:04:43.166Z,6.28
2017-11-17T08:07:11.017Z,6.00
2017-11-17T08:09:38.859Z,5.57
2017-11-17T08:12:06.706Z,5.90
2017-11-17T08:14:34.556Z,6.95
2017-11-17T08:17:08.439Z,5.57
2017-11-17T08:19:36.265Z,6.00
2017-11-17T08:22:04.114Z,5.30
2017-11-17T08:24:31.960Z,6.72
2017-11-17T08:26:59.798Z,5.40
2017-11-17T08:29:27.647Z,6.07
2017-11-17T08:31:55.495Z,6.30
2017-11-17T08:34:23.321Z,6.73
2017-11-17T08:36:51.167Z,5.80
2017-11-17T08:39:19.028Z,5.83
2017-11-17T08:41:46.883Z,7.77
2017-11-17T08:44:14.721Z,5.50
2017-11-17T08:46:42.558Z,5.67
2017-11-17T08:49:10.386Z,6.07
2017-11-17T08:51:38.243Z,6.67
2017-11-17T08:54:06.084Z,5.70
2017-11-17T08:56:33.924Z,6.67
2017-11-17T08:59:01.790Z,5.60
2017-11-17T09:01:29.639Z,6.67
2017-11-17T09:03:57.521Z,4.90
2017-11-17T09:06:25.386Z,5.27
2017-11-17T09:08:53.291Z,5.20
2017-11-17T09:11:21.087Z,5.30
2017-11-17T09:13:48.921Z,5.13
2017-11-17T09:16:16.749Z,5.60
2017-11-17T09:18:44.570Z,4.13
2017-11-17T09:21:12.439Z,5.83
2017-11-17T09:23:40.265Z,5.93
2017-11-17T09:26:08.094Z,5.80
2017-11-17T09:28:35.917Z,4.80
2017-11-17T09:31:03.794Z,5.43
2017-11-17T09:33:31.666Z,3.90
2017-11-17T09:35:59.682Z,4.50
2017-11-17T09:38:27.526Z,4.60
2017-11-17T09:40:55.387Z,5.23
2017-11-17T09:43:23.246Z,4.97
2017-11-17T09:45:51.098Z,4.00
2017-11-17T09:48:18.963Z,5.23
2017-11-17T09:50:46.830Z,6.43
2017-11-17T09:53:14.665Z,4.50
2017-11-17T09:55:42.530Z,4.53
2017-11-17T09:58:10.437Z,5.70
2017-11-17T10:00:38.304Z,5.07
2017-11-17T10:03:06.171Z,5.50
2017-11-17T10:05:34.022Z,5.00
2017-11-17T10:08:01.860Z,5.83
2017-11-17T10:10:29.725Z,4.47
2017-11-17T10:12:57.616Z,4.87
2017-11-17T10:15:25.462Z,3.97
2017-11-17T10:17:53.349Z,6.80
2017-11-17T10:20:21.203Z,5.70
2017-11-17T10:22:49.038Z,5.40
2017-11-17T10:25:16.872Z,4.00
2017-11-17T10:27:44.694Z,4.63
2017-11-17T10:30:12.531Z,4.60
2017-11-17T10:32:40.376Z,4.43
2017-11-17T10:35:08.218Z,4.13
2017-11-17T10:37:36.038Z,6.20
2017-11-17T10:40:03.858Z,4.30
2017-11-17T10:42:31.779Z,4.50
2017-11-17T10:44:59.619Z,4.13
2017-11-17T10:47:27.478Z,3.33
2017-11-17T10:49:55.343Z,3.67
2017-11-17T10:52:23.194Z,5.20
2017-11-17T10:54:51.030Z,3.80
2017-11-17T10:57:18.853Z,3.97
2017-11-17T10:59:46.671Z,4.10
2017-11-17T11:02:14.489Z,3.53
2017-11-17T11:04:42.339Z,3.70
2017-11-17T11:07:10.216Z,5.50
2017-11-17T11:09:38.054Z,4.33
2017-11-17T11:12:05.953Z,4.30
2017-11-17T11:14:33.809Z,3.93
2017-11-17T11:17:01.649Z,4.27
2017-11-17T11:19:29.548Z,4.13
2017-11-17T11:21:57.407Z,4.10
2017-11-17T11:24:25.281Z,4.80
2017-11-17T11:26:53.109Z,4.30
2017-11-17T11:29:20.951Z,3.90
2017-11-17T11:31:48.779Z,4.70
2017-11-17T11:34:16.635Z,3.30
2017-11-17T11:36:44.476Z,4.90
2017-11-17T11:39:12.319Z,4.00
2017-11-17T11:41:40.158Z,4.40
2017-11-17T11:44:08.035Z,3.23
2017-11-17T11:46:35.859Z,4.77
2017-11-17T11:49:03.725Z,4.47
2017-11-17T11:51:31.577Z,4.30
2017-11-17T11:53:59.413Z,4.30
2017-11-17T11:56:27.239Z,3.50
2017-11-17T11:58:55.077Z,3.37
2017-11-17T12:01:22.933Z,3.43
2017-11-17T12:03:50.770Z,3.37
2017-11-17T12:06:18.603Z,3.23
2017-11-17T12:08:46.445Z,2.77
2017-11-17T12:11:14.263Z,3.03
2017-11-17T12:13:42.098Z,3.37
2017-11-17T12:16:09.955Z,3.57
2017-11-17T12:18:37.823Z,2.63
2017-11-17T12:21:05.690Z,4.67
2017-11-17T12:23:33.554Z,4.10
2017-11-17T12:26:01.438Z,3.53
2017-11-17T12:28:29.302Z,3.00
2017-11-17T12:30:57.144Z,3.60
2017-11-17T12:33:25.000Z,3.30
2017-11-17T12:35:52.888Z,4.03
2017-11-17T12:38:20.745Z,4.00
2017-11-17T12:40:48.612Z,3.80
2017-11-17T12:43:16.433Z,4.00
2017-11-17T12:45:44.293Z,5.67
2017-11-17T12:48:12.165Z,4.00
2017-11-17T12:50:40.026Z,4.50
2017-11-17T12:53:07.856Z,5.00
2017-11-17T12:55:35.693Z,2.70
2017-11-17T12:58:03.539Z,2.97
2017-11-17T13:00:31.375Z,2.80
2017-11-17T13:02:59.197Z,2.97
2017-11-17T13:05:27.054Z,4.03
2017-11-17T13:07:54.909Z,3.17
2017-11-17T13:10:22.784Z,3.10
2017-11-17T13:12:50.659Z,2.47
2017-11-17T13:15:18.509Z,2.47
2017-11-17T13:17:46.343Z,3.07
2017-11-17T13:20:14.211Z,3.10
2017-11-17T13:22:42.030Z,4.17
2017-11-17T13:25:09.869Z,3.63
2017-11-17T13:27:37.698Z,2.77
2017-11-17T13:30:05.534Z,2.50
2017-11-17T13:32:33.363Z,3.70
2017-11-17T13:35:01.188Z,3.83
2017-11-17T13:37:29.051Z,3.10
2017-11-17T13:39:56.874Z,2.40
2017-11-17T13:42:24.721Z,3.97
2017-11-17T13:44:52.553Z,3.23
2017-11-17T13:47:20.462Z,3.83
2017-11-17T13:49:48.330Z,2.47
2017-11-17T13:52:16.223Z,1.73
2017-11-17T13:54:44.146Z,2.63
2017-11-17T13:57:12.030Z,3.80
2017-11-17T13:59:39.886Z,3.33
2017-11-17T14:02:07.751Z,3.50
2017-11-17T14:04:35.612Z,3.83
2017-11-17T14:07:04.442Z,3.50
2017-11-17T14:09:32.401Z,3.50
2017-11-17T14:12:00.345Z,2.90
2017-11-17T14:14:28.255Z,2.30
2017-11-17T14:16:56.104Z,2.47
2017-11-17T14:19:26.214Z,3.03
2017-11-17T14:21:54.176Z,4.20
2017-11-17T14:24:22.034Z,3.67
2017-11-17T14:26:49.874Z,3.80
2017-11-17T14:29:17.772Z,3.70
2017-11-17T14:31:45.652Z,3.40
2017-11-17T14:34:13.494Z,2.77
2017-11-17T14:36:41.362Z,3.67
2017-11-17T14:39:13.359Z,4.33
2017-11-17T14:41:41.187Z,4.03
2017-11-17T14:44:09.055Z,3.43
2017-11-17T14:46:36.922Z,2.50
2017-11-17T14:49:04.782Z,3.73
2017-11-17T14:51:32.627Z,3.40
2017-11-17T14:54:00.478Z,3.00
2017-11-17T14:56:28.350Z,2.80
2017-11-17T14:58:56.254Z,2.73
2017-11-17T15:01:24.265Z,4.20
2017-11-17T15:03:52.092Z,3.03
2017-11-17T15:06:19.930Z,3.90
2017-11-17T15:08:47.789Z,4.60
2017-11-17T15:11:15.639Z,3.73
2017-11-17T15:13:43.540Z,3.07
2017-11-17T15:16:11.446Z,2.67
2017-11-17T15:18:39.344Z,5.13
2017-11-17T15:21:07.226Z,2.80
2017-11-17T15:23:35.070Z,4.40
2017-11-17T15:26:02.923Z,3.60
2017-11-17T15:28:30.766Z,3.40
2017-11-17T15:30:58.634Z,3.27
2017-11-17T15:33:26.540Z,4.27
2017-11-17T15:35:54.390Z,3.33
2017-11-17T15:38:22.243Z,4.30
2017-11-17T15:40:50.141Z,3.03
2017-11-17T15:43:17.976Z,3.90
2017-11-17T15:45:45.801Z,3.43
2017-11-17T15:48:13.675Z,3.27
2017-11-17T15:50:41.542Z,4.03
2017-11-17T15:53:09.402Z,3.60
2017-11-17T15:55:37.250Z,3.83
2017-11-17T15:58:05.110Z,4.77
2017-11-17T16:00:32.955Z,4.10
2017-11-17T16:03:00.809Z,4.00
2017-11-17T16:05:28.663Z,4.60
2017-11-17T16:07:56.530Z,4.20
2017-11-17T16:10:24.389Z,4.37
2017-11-17T16:12:52.226Z,3.80
2017-11-17T16:15:20.058Z,4.00
2017-11-17T16:17:47.943Z,3.90
2017-11-17T16:20:15.824Z,5.20
2017-11-17T16:22:43.713Z,3.87
2017-11-17T16:28:14.732Z,4.00
2017-11-17T16:33:17.322Z,3.90
2017-11-17T16:35:51.414Z,4.10
2017-11-17T16:38:19.287Z,4.80
2017-11-17T16:40:47.129Z,4.83
2017-11-17T16:43:14.983Z,4.73
2017-11-17T16:48:42.626Z,7.23
2017-11-17T16:51:10.535Z,5.40
2017-11-17T16:53:38.393Z,4.17
2017-11-17T16:56:06.224Z,4.40
2017-11-17T16:58:34.053Z,5.17
2017-11-17T17:01:01.917Z,4.10
2017-11-17T17:03:29.761Z,3.70
2017-11-17T17:05:57.611Z,6.70
2017-11-17T17:08:25.460Z,5.70
2017-11-17T17:10:54.027Z,4.60
2017-11-17T17:13:21.929Z,3.70
2017-11-17T17:15:49.782Z,4.33
2017-11-17T17:18:17.633Z,4.77
2017-11-17T17:20:45.542Z,4.27
2017-11-17T17:23:13.500Z,4.33
2017-11-17T17:25:41.374Z,5.20
2017-11-17T17:28:09.217Z,4.13
2017-11-17T17:30:37.101Z,5.03
2017-11-17T17:33:04.949Z,5.10
2017-11-17T17:35:32.797Z,4.83
2017-11-17T17:38:00.671Z,4.63
2017-11-17T17:40:28.531Z,4.90
2017-11-17T17:42:56.399Z,5.00
2017-11-17T17:45:24.326Z,3.70
2017-11-17T17:47:52.202Z,5.27
2017-11-17T17:50:20.143Z,5.70
2017-11-17T17:52:48.026Z,5.47
2017-11-17T17:55:15.911Z,4.07
2017-11-17T17:57:43.750Z,4.43
2017-11-17T18:00:11.603Z,6.27
2017-11-17T18:02:39.559Z,4.47
2017-11-17T18:05:07.438Z,4.90
2017-11-17T18:07:36.254Z,4.60
2017-11-17T18:10:08.760Z,4.50
2017-11-17T18:12:37.358Z,5.07
2017-11-17T18:15:05.373Z,5.73
2017-11-17T18:17:33.239Z,4.00
2017-11-17T18:20:01.091Z,5.10
2017-11-17T18:22:28.974Z,4.80
2017-11-17T18:25:02.832Z,6.27
2017-11-17T18:27:30.686Z,6.30
2017-11-17T18:29:58.629Z,3.70
2017-11-17T18:32:26.593Z,5.10
2017-11-17T18:34:54.504Z,4.70
2017-11-17T18:37:22.361Z,4.80
2017-11-17T18:40:08.590Z,4.13
2017-11-17T18:42:36.422Z,5.20
2017-11-17T18:45:04.305Z,5.07
2017-11-17T18:47:32.229Z,4.77
2017-11-17T18:50:00.006Z,5.97
2017-11-17T18:52:27.870Z,5.47
2017-11-17T18:54:55.731Z,4.63
2017-11-17T18:57:26.163Z,4.83
2017-11-17T18:59:54.016Z,5.33
2017-11-17T19:02:21.948Z,2.57
2017-11-17T19:04:53.378Z,4.37
2017-11-17T19:07:21.214Z,4.63
2017-11-17T19:09:49.075Z,5.20
2017-11-17T19:12:17.009Z,5.83
2017-11-17T19:14:50.827Z,5.37
2017-11-17T19:17:18.674Z,6.43
2017-11-17T19:19:46.542Z,5.63
2017-11-17T19:22:14.365Z,6.53
2017-11-17T19:24:42.246Z,5.70
2017-11-17T19:27:10.114Z,5.40
2017-11-17T19:29:37.982Z,5.93
2017-11-17T19:32:05.826Z,5.40
2017-11-17T19:34:33.706Z,5.33
2017-11-17T19:37:01.555Z,5.23
2017-11-17T19:39:29.411Z,4.60
2017-11-17T19:41:57.495Z,5.63
2017-11-17T19:44:25.467Z,5.20
2017-11-17T19:46:53.339Z,4.40
2017-11-17T19:49:21.206Z,5.87
2017-11-17T19:51:49.050Z,5.40
2017-11-17T19:57:20.267Z,5.40
2017-11-17T19:59:48.870Z,4.53
2017-11-17T20:02:16.876Z,3.30
2017-11-17T20:04:44.973Z,4.80
2017-11-17T20:07:13.486Z,4.67
2017-11-17T20:09:42.058Z,4.13
2017-11-17T20:12:10.556Z,4.40
2017-11-17T20:14:38.572Z,4.60
2017-11-17T20:17:06.437Z,5.30
2017-11-17T20:19:34.273Z,5.90
2017-11-17T20:22:02.113Z,4.53
2017-11-17T20:24:29.971Z,4.80
2017-11-17T20:26:57.828Z,3.60
2017-11-17T20:29:25.671Z,4.40
2017-11-17T20:31:53.515Z,6.47
2017-11-17T20:34:21.393Z,5.53
2017-11-17T20:36:49.257Z,5.50
2017-11-17T20:39:17.094Z,5.83
2017-11-17T20:41:44.976Z,5.60
2017-11-17T20:44:12.834Z,5.30
2017-11-17T20:46:40.726Z,4.20
2017-11-17T20:49:08.599Z,5.37
2017-11-17T20:51:36.495Z,4.97
2017-11-17T20:54:17.901Z,5.70
2017-11-17T20:59:39.314Z,6.40
2017-11-17T21:02:08.282Z,5.10
2017-11-17T21:04:41.738Z,5.30
2017-11-17T21:07:09.792Z,6.70
2017-11-17T21:12:19.680Z,6.07
2017-11-17T21:17:42.562Z,6.40
2017-11-17T21:20:15.987Z,5.93
2017-11-17T21:25:37.221Z,5.13
2017-11-17T21:28:05.509Z,6.00
2017-11-17T21:33:28.360Z,5.47
2017-11-17T21:41:38.129Z,5.60
2017-11-17T21:44:06.048Z,5.40
2017-11-17T21:46:40.573Z,5.37
2017-11-17T21:49:08.404Z,7.30
2017-11-17T21:51:36.233Z,5.90
2017-11-17T21:54:10.378Z,7.70
2017-11-17T21:56:38.248Z,6.03
2017-11-17T21:59:06.109Z,7.33
2017-11-17T22:01:33.947Z,5.33
2017-11-17T22:04:01.802Z,6.47
2017-11-17T22:06:30.484Z,7.37
2017-11-17T22:08:58.344Z,7.70
2017-11-17T22:11:26.221Z,5.90
2017-11-17T22:13:54.040Z,6.87
2017-11-17T22:16:21.923Z,3.90
2017-11-17T22:18:49.782Z,7.33
2017-11-17T22:21:17.661Z,6.70
2017-11-17T22:23:45.529Z,6.57
2017-11-17T22:26:13.371Z,5.20
2017-11-17T22:28:41.285Z,7.30
2017-11-17T22:31:09.186Z,4.97
2017-11-17T22:33:37.113Z,5.83
2017-11-17T22:36:04.995Z,4.80
2017-11-17T22:38:32.927Z,5.00
2017-11-17T22:41:00.816Z,6.53
2017-11-17T22:43:28.677Z,6.20
2017-11-17T22:45:56.505Z,5.27
2017-11-17T22:48:24.373Z,5.83
2017-11-17T22:50:52.242Z,6.80
2017-11-17T22:53:20.098Z,4.03
2017-11-17T22:55:47.926Z,4.77
2017-11-17T22:58:15.803Z,5.30
2017-11-17T23:00:43.632Z,5.87
2017-11-17T23:03:11.537Z,5.37
2017-11-17T23:05:39.362Z,3.50
2017-11-17T23:08:07.229Z,4.83
2017-11-17T23:10:35.079Z,5.40
2017-11-17T23:13:02.946Z,4.63
2017-11-17T23:15:30.782Z,4.67
2017-11-17T23:17:58.710Z,5.27
2017-11-17T23:20:26.514Z,5.57
2017-11-17T23:22:54.336Z,4.53
2017-11-17T23:25:22.191Z,5.03
2017-11-17T23:27:50.037Z,5.47
2017-11-17T23:30:17.930Z,4.73
2017-11-17T23:32:45.769Z,4.53
2017-11-17T23:35:13.637Z,6.23
2017-11-17T23:37:41.469Z,4.40
2017-11-17T23:40:09.342Z,5.00
2017-11-17T23:42:37.274Z,6.63
2017-11-17T23:45:05.175Z,3.43
2017-11-17T23:47:33.013Z,4.43
2017-11-17T23:50:00.887Z,4.90
2017-11-17T23:52:28.744Z,5.90
2017-11-17T23:54:56.590Z,6.53
2017-11-17T23:57:24.449Z,4.70
2017-11-17T23:59:52.414Z,5.07
